Benagalbon, Spain

9:05 AM CET on December 08, 2016 (GMT +0100)
Paraíso del sol | | Change Station

Elev 466 ft 36.74 °N, 4.25 °W | Updated 3 seconds ago

Clear
Clear
57.9 °F
Feels Like 57.9 °F
N
0.0
Wind Variable Wind from West
Gusts 0.0 mph

Today
High -- | Low -- °F
--% Chance of Precip.
Yesterday
High -- | Low -- °F
Precip. -- in
Pressure 30.42 in
Visibility 6.2 miles
Clouds Few 2200 ft
Dew Point 47 °F
Humidity 66%
Rainfall 0.00 in
Snow Depth Not available.
8:17 AM 6:00 PM
First Quarter, 61% visible
METAR LEMG 080730Z 29002KT 9999 FEW022 11/10 Q1030 NOSIG
Pressure 30.42 in
Visibility 6.2 miles
Clouds Few 2200 ft
Dew Point 47 °F
Humidity 66%
Rainfall 0.00 in
Snow Depth Not available.
8:17 AM 6:00 PM
First Quarter, 61% visible
METAR LEMG 080730Z 29002KT 9999 FEW022 11/10 Q1030 NOSIG

10-Day Weather Forecast

×

Almanac

Astronomy

Dec. 08, 2016 Rise Set
Actual Time
Civil Twilight
Nautical Twilight
Astronomical Twilight
Moon
Length of Visible Light
Length of Day
Tomorrow will be .
, % of the Moon is Illuminated

Today's Extremes

Country Highs Country Lows

Community

WunderPhotos

Upload Photos

1,956,259 photos uploaded!

WunderBlog® & News

Nearby

Air Quality

  Air Quality AQ Index Pollutant
Not available.

Snow Depth

Station Depth Elevation

Earthquake Activity

City Distance Mag. Time & Date
Minimum magnitude displayed is 2.5.

Coastal Water Temperatures

Place Temperature

Stations

Nearby Weather Stations

Station Location Temp. Windchill Dew Point Humidity Wind Precip. Elev Updated Type